sensor_id;sensor_type;location;lat;lon;timestamp;P1;durP1;ratioP1;P2;durP2;ratioP2
16139;SDS011;8175;49.326;12.690;2023-04-09T05:29:25;27.73;;;15.60;;
16139;SDS011;8175;49.326;12.690;2023-04-09T05:31:51;32.47;;;19.77;;
16139;SDS011;8175;49.326;12.690;2023-04-09T05:34:16;32.57;;;19.07;;
16139;SDS011;8175;49.326;12.690;2023-04-09T05:36:42;39.83;;;22.77;;
16139;SDS011;8175;49.326;12.690;2023-04-09T05:45:18;44.77;;;23.70;;
16139;SDS011;8175;49.326;12.690;2023-04-09T05:47:44;39.23;;;23.13;;
16139;SDS011;8175;49.326;12.690;2023-04-09T05:50:10;44.57;;;24.43;;
16139;SDS011;8175;49.326;12.690;2023-04-09T05:52:35;48.23;;;23.33;;
16139;SDS011;8175;49.326;12.690;2023-04-09T05:55:01;38.37;;;22.83;;
16139;SDS011;8175;49.326;12.690;2023-04-09T05:57:27;34.57;;;19.63;;
16139;SDS011;8175;49.326;12.690;2023-04-09T05:59:54;33.37;;;20.30;;
16139;SDS011;8175;49.326;12.690;2023-04-09T06:02:20;31.50;;;19.57;;
16139;SDS011;8175;49.326;12.690;2023-04-09T06:04:45;35.30;;;19.57;;
16139;SDS011;8175;49.326;12.690;2023-04-09T06:07:11;30.97;;;18.53;;
16139;SDS011;8175;49.326;12.690;2023-04-09T06:16:47;29.50;;;20.73;;
16139;SDS011;8175;49.326;12.690;2023-04-09T06:19:14;34.90;;;22.20;;
16139;SDS011;8175;49.326;12.690;2023-04-09T06:21:40;38.70;;;28.70;;
16139;SDS011;8175;49.326;12.690;2023-04-09T06:24:06;114.07;;;80.87;;
16139;SDS011;8175;49.326;12.690;2023-04-09T06:26:32;61.17;;;41.03;;
16139;SDS011;8175;49.326;12.690;2023-04-09T06:28:57;52.07;;;34.57;;
16139;SDS011;8175;49.326;12.690;2023-04-09T06:31:23;41.53;;;30.13;;
16139;SDS011;8175;49.326;12.690;2023-04-09T06:33:48;45.80;;;32.53;;
16139;SDS011;8175;49.326;12.690;2023-04-09T06:36:14;49.97;;;35.03;;
16139;SDS011;8175;49.326;12.690;2023-04-09T06:46:20;37.87;;;26.20;;
16139;SDS011;8175;49.326;12.690;2023-04-09T06:48:46;45.27;;;30.47;;
16139;SDS011;8175;49.326;12.690;2023-04-09T06:51:11;45.07;;;32.20;;
16139;SDS011;8175;49.326;12.690;2023-04-09T06:53:38;40.77;;;28.13;;
16139;SDS011;8175;49.326;12.690;2023-04-09T06:56:04;36.17;;;22.80;;
16139;SDS011;8175;49.326;12.690;2023-04-09T06:58:31;42.63;;;29.40;;
16139;SDS011;8175;49.326;12.690;2023-04-09T07:00:56;35.20;;;23.90;;
16139;SDS011;8175;49.326;12.690;2023-04-09T07:03:23;38.23;;;29.90;;
16139;SDS011;8175;49.326;12.690;2023-04-09T07:05:48;41.70;;;27.73;;
16139;SDS011;8175;49.326;12.690;2023-04-09T07:08:14;30.13;;;20.90;;
16139;SDS011;8175;49.326;12.690;2023-04-09T07:10:40;31.53;;;22.30;;
16139;SDS011;8175;49.326;12.690;2023-04-09T07:13:06;35.93;;;25.80;;
16139;SDS011;8175;49.326;12.690;2023-04-09T07:15:31;34.90;;;23.83;;
16139;SDS011;8175;49.326;12.690;2023-04-09T07:17:57;33.53;;;22.70;;
16139;SDS011;8175;49.326;12.690;2023-04-09T07:20:23;27.90;;;19.27;;
16139;SDS011;8175;49.326;12.690;2023-04-09T07:22:49;27.90;;;18.97;;
16139;SDS011;8175;49.326;12.690;2023-04-09T07:25:15;26.73;;;19.60;;
16139;SDS011;8175;49.326;12.690;2023-04-09T07:27:40;23.40;;;16.90;;
16139;SDS011;8175;49.326;12.690;2023-04-09T07:30:09;24.37;;;17.30;;
16139;SDS011;8175;49.326;12.690;2023-04-09T07:32:35;24.37;;;16.10;;
16139;SDS011;8175;49.326;12.690;2023-04-09T07:35:02;26.77;;;17.87;;
16139;SDS011;8175;49.326;12.690;2023-04-09T07:37:30;22.47;;;17.13;;
16139;SDS011;8175;49.326;12.690;2023-04-09T07:39:56;22.43;;;15.40;;
16139;SDS011;8175;49.326;12.690;2023-04-09T07:42:21;21.30;;;16.43;;
16139;SDS011;8175;49.326;12.690;2023-04-09T07:44:47;24.33;;;18.27;;
16139;SDS011;8175;49.326;12.690;2023-04-09T07:47:13;23.33;;;16.30;;
16139;SDS011;8175;49.326;12.690;2023-04-09T07:49:39;21.33;;;15.77;;
16139;SDS011;8175;49.326;12.690;2023-04-09T07:52:05;21.03;;;16.23;;
16139;SDS011;8175;49.326;12.690;2023-04-09T07:54:31;21.13;;;15.33;;
16139;SDS011;8175;49.326;12.690;2023-04-09T07:56:57;17.17;;;14.10;;
16139;SDS011;8175;49.326;12.690;2023-04-09T07:59:24;21.53;;;16.33;;
16139;SDS011;8175;49.326;12.690;2023-04-09T08:01:51;18.47;;;13.83;;
16139;SDS011;8175;49.326;12.690;2023-04-09T08:04:17;16.60;;;13.40;;
16139;SDS011;8175;49.326;12.690;2023-04-09T08:06:43;16.97;;;13.23;;
16139;SDS011;8175;49.326;12.690;2023-04-09T08:09:14;18.07;;;14.20;;
16139;SDS011;8175;49.326;12.690;2023-04-09T08:11:40;19.80;;;15.13;;
16139;SDS011;8175;49.326;12.690;2023-04-09T08:14:06;18.70;;;14.47;;
16139;SDS011;8175;49.326;12.690;2023-04-09T08:16:36;18.63;;;14.60;;
16139;SDS011;8175;49.326;12.690;2023-04-09T08:19:06;16.93;;;12.90;;
16139;SDS011;8175;49.326;12.690;2023-04-09T08:21:33;29.57;;;21.50;;
16139;SDS011;8175;49.326;12.690;2023-04-09T08:24:00;17.87;;;13.80;;
16139;SDS011;8175;49.326;12.690;2023-04-09T08:26:28;20.70;;;14.33;;
16139;SDS011;8175;49.326;12.690;2023-04-09T08:28:54;16.47;;;12.50;;
16139;SDS011;8175;49.326;12.690;2023-04-09T08:31:20;19.37;;;15.53;;
16139;SDS011;8175;49.326;12.690;2023-04-09T08:33:46;18.00;;;14.17;;
16139;SDS011;8175;49.326;12.690;2023-04-09T08:36:12;16.97;;;13.63;;
16139;SDS011;8175;49.326;12.690;2023-04-09T08:38:37;17.60;;;14.23;;
16139;SDS011;8175;49.326;12.690;2023-04-09T08:41:03;48.37;;;32.87;;
16139;SDS011;8175;49.326;12.690;2023-04-09T08:43:29;19.43;;;14.20;;
16139;SDS011;8175;49.326;12.690;2023-04-09T08:45:58;19.50;;;14.17;;
16139;SDS011;8175;49.326;12.690;2023-04-09T08:48:24;19.07;;;14.03;;
16139;SDS011;8175;49.326;12.690;2023-04-09T08:50:50;15.73;;;12.43;;
16139;SDS011;8175;49.326;12.690;2023-04-09T08:53:17;14.50;;;11.07;;
16139;SDS011;8175;49.326;12.690;2023-04-09T08:55:46;14.20;;;11.10;;
16139;SDS011;8175;49.326;12.690;2023-04-09T08:58:12;12.37;;;10.80;;
16139;SDS011;8175;49.326;12.690;2023-04-09T09:00:38;17.80;;;12.30;;
16139;SDS011;8175;49.326;12.690;2023-04-09T09:03:08;14.70;;;10.60;;
16139;SDS011;8175;49.326;12.690;2023-04-09T09:05:39;10.27;;;7.67;;
16139;SDS011;8175;49.326;12.690;2023-04-09T09:08:10;8.03;;;6.67;;
16139;SDS011;8175;49.326;12.690;2023-04-09T09:10:49;9.77;;;7.67;;
16139;SDS011;8175;49.326;12.690;2023-04-09T09:15:52;9.60;;;7.60;;
16139;SDS011;8175;49.326;12.690;2023-04-09T09:18:21;11.97;;;8.60;;
16139;SDS011;8175;49.326;12.690;2023-04-09T09:21:09;9.57;;;7.07;;
16139;SDS011;8175;49.326;12.690;2023-04-09T09:23:39;10.33;;;8.40;;
16139;SDS011;8175;49.326;12.690;2023-04-09T09:26:18;8.87;;;7.97;;
16139;SDS011;8175;49.326;12.690;2023-04-09T09:28:48;10.27;;;8.43;;
16139;SDS011;8175;49.326;12.690;2023-04-09T09:31:15;8.90;;;7.70;;
16139;SDS011;8175;49.326;12.690;2023-04-09T09:33:42;10.33;;;8.33;;
16139;SDS011;8175;49.326;12.690;2023-04-09T09:36:08;8.67;;;7.57;;
16139;SDS011;8175;49.326;12.690;2023-04-09T09:41:19;10.23;;;8.20;;
16139;SDS011;8175;49.326;12.690;2023-04-09T09:43:45;12.10;;;8.80;;
16139;SDS011;8175;49.326;12.690;2023-04-09T09:46:11;10.47;;;8.60;;
16139;SDS011;8175;49.326;12.690;2023-04-09T09:48:37;9.57;;;8.03;;
16139;SDS011;8175;49.326;12.690;2023-04-09T09:51:06;9.57;;;8.03;;
16139;SDS011;8175;49.326;12.690;2023-04-09T09:53:35;10.30;;;8.17;;
16139;SDS011;8175;49.326;12.690;2023-04-09T09:56:03;8.80;;;7.67;;
16139;SDS011;8175;49.326;12.690;2023-04-09T09:58:37;9.67;;;8.03;;
16139;SDS011;8175;49.326;12.690;2023-04-09T10:01:07;9.47;;;8.23;;
16139;SDS011;8175;49.326;12.690;2023-04-09T10:03:35;12.23;;;9.10;;
16139;SDS011;8175;49.326;12.690;2023-04-09T10:06:03;11.63;;;9.43;;
16139;SDS011;8175;49.326;12.690;2023-04-09T10:08:30;12.40;;;9.17;;
16139;SDS011;8175;49.326;12.690;2023-04-09T10:10:59;13.33;;;9.97;;
16139;SDS011;8175;49.326;12.690;2023-04-09T10:13:30;10.50;;;9.47;;
16139;SDS011;8175;49.326;12.690;2023-04-09T10:16:19;10.80;;;9.23;;
16139;SDS011;8175;49.326;12.690;2023-04-09T10:18:47;10.57;;;8.50;;
16139;SDS011;8175;49.326;12.690;2023-04-09T10:21:19;12.80;;;9.80;;
16139;SDS011;8175;49.326;12.690;2023-04-09T10:24:07;10.40;;;9.33;;
16139;SDS011;8175;49.326;12.690;2023-04-09T10:26:34;12.30;;;9.70;;
16139;SDS011;8175;49.326;12.690;2023-04-09T10:29:05;10.60;;;9.00;;
16139;SDS011;8175;49.326;12.690;2023-04-09T10:31:44;11.70;;;9.37;;
16139;SDS011;8175;49.326;12.690;2023-04-09T10:34:10;11.50;;;9.90;;
16139;SDS011;8175;49.326;12.690;2023-04-09T10:36:41;12.70;;;10.83;;
16139;SDS011;8175;49.326;12.690;2023-04-09T10:39:11;12.30;;;10.47;;
16139;SDS011;8175;49.326;12.690;2023-04-09T10:41:40;13.93;;;10.67;;
16139;SDS011;8175;49.326;12.690;2023-04-09T10:46:47;13.07;;;11.20;;
16139;SDS011;8175;49.326;12.690;2023-04-09T10:49:20;13.30;;;10.93;;
16139;SDS011;8175;49.326;12.690;2023-04-09T10:51:47;13.60;;;11.83;;
16139;SDS011;8175;49.326;12.690;2023-04-09T10:59:39;14.53;;;11.27;;
16139;SDS011;8175;49.326;12.690;2023-04-09T11:02:18;13.57;;;11.17;;
16139;SDS011;8175;49.326;12.690;2023-04-09T11:07:42;13.80;;;11.07;;
16139;SDS011;8175;49.326;12.690;2023-04-09T11:10:11;14.53;;;11.20;;
16139;SDS011;8175;49.326;12.690;2023-04-09T11:12:36;14.17;;;10.90;;
16139;SDS011;8175;49.326;12.690;2023-04-09T11:15:02;13.57;;;11.40;;
16139;SDS011;8175;49.326;12.690;2023-04-09T11:17:28;13.30;;;11.23;;
16139;SDS011;8175;49.326;12.690;2023-04-09T11:19:55;12.60;;;10.80;;
16139;SDS011;8175;49.326;12.690;2023-04-09T11:22:20;14.30;;;11.60;;
16139;SDS011;8175;49.326;12.690;2023-04-09T11:24:46;15.40;;;11.43;;
16139;SDS011;8175;49.326;12.690;2023-04-09T11:27:12;16.30;;;12.03;;
16139;SDS011;8175;49.326;12.690;2023-04-09T11:29:38;14.27;;;11.93;;
16139;SDS011;8175;49.326;12.690;2023-04-09T11:32:03;15.20;;;12.03;;
16139;SDS011;8175;49.326;12.690;2023-04-09T11:34:30;17.37;;;12.73;;
16139;SDS011;8175;49.326;12.690;2023-04-09T11:36:56;20.17;;;14.87;;
16139;SDS011;8175;49.326;12.690;2023-04-09T11:39:23;13.80;;;12.27;;
16139;SDS011;8175;49.326;12.690;2023-04-09T11:41:50;14.53;;;10.97;;
16139;SDS011;8175;49.326;12.690;2023-04-09T11:44:16;14.53;;;11.03;;
16139;SDS011;8175;49.326;12.690;2023-04-09T11:46:41;13.93;;;11.17;;
16139;SDS011;8175;49.326;12.690;2023-04-09T11:49:07;13.30;;;10.77;;
16139;SDS011;8175;49.326;12.690;2023-04-09T11:51:33;12.77;;;10.03;;
16139;SDS011;8175;49.326;12.690;2023-04-09T11:54:06;12.57;;;9.80;;
16139;SDS011;8175;49.326;12.690;2023-04-09T11:56:33;11.30;;;10.07;;
16139;SDS011;8175;49.326;12.690;2023-04-09T11:59:00;11.37;;;9.53;;
16139;SDS011;8175;49.326;12.690;2023-04-09T12:01:29;11.90;;;10.60;;
16139;SDS011;8175;49.326;12.690;2023-04-09T12:03:56;11.20;;;9.90;;
16139;SDS011;8175;49.326;12.690;2023-04-09T12:06:23;12.03;;;9.17;;
16139;SDS011;8175;49.326;12.690;2023-04-09T12:08:56;9.93;;;8.93;;
16139;SDS011;8175;49.326;12.690;2023-04-09T12:11:29;11.73;;;10.13;;
16139;SDS011;8175;49.326;12.690;2023-04-09T12:14:02;10.20;;;9.10;;
16139;SDS011;8175;49.326;12.690;2023-04-09T12:16:31;12.13;;;10.70;;
16139;SDS011;8175;49.326;12.690;2023-04-09T12:19:01;13.33;;;10.80;;
16139;SDS011;8175;49.326;12.690;2023-04-09T12:21:49;10.93;;;8.83;;
16139;SDS011;8175;49.326;12.690;2023-04-09T12:24:21;9.70;;;8.70;;
16139;SDS011;8175;49.326;12.690;2023-04-09T12:26:47;12.17;;;10.23;;
16139;SDS011;8175;49.326;12.690;2023-04-09T12:29:14;10.73;;;9.30;;
16139;SDS011;8175;49.326;12.690;2023-04-09T12:31:41;9.80;;;8.57;;
16139;SDS011;8175;49.326;12.690;2023-04-09T12:34:07;10.93;;;8.57;;
16139;SDS011;8175;49.326;12.690;2023-04-09T12:36:33;11.20;;;9.03;;
16139;SDS011;8175;49.326;12.690;2023-04-09T12:38:59;11.33;;;9.63;;
16139;SDS011;8175;49.326;12.690;2023-04-09T12:41:25;11.03;;;9.40;;
16139;SDS011;8175;49.326;12.690;2023-04-09T12:43:51;10.90;;;9.80;;
16139;SDS011;8175;49.326;12.690;2023-04-09T12:46:17;11.73;;;9.43;;
16139;SDS011;8175;49.326;12.690;2023-04-09T12:48:43;13.10;;;10.03;;
16139;SDS011;8175;49.326;12.690;2023-04-09T12:51:10;11.10;;;9.90;;
16139;SDS011;8175;49.326;12.690;2023-04-09T12:53:36;10.57;;;9.37;;
16139;SDS011;8175;49.326;12.690;2023-04-09T12:56:02;12.83;;;10.10;;
16139;SDS011;8175;49.326;12.690;2023-04-09T12:58:28;11.17;;;10.07;;
16139;SDS011;8175;49.326;12.690;2023-04-09T13:00:53;9.97;;;8.67;;
16139;SDS011;8175;49.326;12.690;2023-04-09T13:03:21;9.50;;;8.00;;
16139;SDS011;8175;49.326;12.690;2023-04-09T13:05:47;11.93;;;9.30;;
16139;SDS011;8175;49.326;12.690;2023-04-09T13:08:13;10.43;;;9.33;;
16139;SDS011;8175;49.326;12.690;2023-04-09T13:10:39;9.73;;;8.67;;
16139;SDS011;8175;49.326;12.690;2023-04-09T13:13:05;11.27;;;10.17;;
16139;SDS011;8175;49.326;12.690;2023-04-09T13:15:35;11.23;;;10.03;;
16139;SDS011;8175;49.326;12.690;2023-04-09T13:18:02;12.27;;;10.07;;
16139;SDS011;8175;49.326;12.690;2023-04-09T13:20:27;10.70;;;9.60;;
16139;SDS011;8175;49.326;12.690;2023-04-09T13:22:54;11.77;;;9.97;;
16139;SDS011;8175;49.326;12.690;2023-04-09T13:25:20;11.07;;;9.77;;
16139;SDS011;8175;49.326;12.690;2023-04-09T13:27:46;12.87;;;10.77;;
16139;SDS011;8175;49.326;12.690;2023-04-09T13:30:11;11.60;;;10.10;;
16139;SDS011;8175;49.326;12.690;2023-04-09T13:32:37;12.17;;;10.37;;
16139;SDS011;8175;49.326;12.690;2023-04-09T13:35:03;10.30;;;9.07;;
16139;SDS011;8175;49.326;12.690;2023-04-09T13:37:30;11.53;;;9.53;;
16139;SDS011;8175;49.326;12.690;2023-04-09T13:39:55;12.50;;;10.67;;
16139;SDS011;8175;49.326;12.690;2023-04-09T13:42:21;11.93;;;10.30;;
16139;SDS011;8175;49.326;12.690;2023-04-09T13:44:47;12.30;;;10.50;;
16139;SDS011;8175;49.326;12.690;2023-04-09T13:47:13;12.27;;;10.33;;
16139;SDS011;8175;49.326;12.690;2023-04-09T13:49:40;12.43;;;10.30;;
16139;SDS011;8175;49.326;12.690;2023-04-09T13:52:06;11.90;;;10.07;;
16139;SDS011;8175;49.326;12.690;2023-04-09T13:54:32;13.07;;;11.07;;
16139;SDS011;8175;49.326;12.690;2023-04-09T13:56:58;12.50;;;11.13;;
16139;SDS011;8175;49.326;12.690;2023-04-09T13:59:24;12.13;;;10.13;;
16139;SDS011;8175;49.326;12.690;2023-04-09T14:01:49;10.90;;;9.73;;
16139;SDS011;8175;49.326;12.690;2023-04-09T14:04:15;10.43;;;9.27;;
16139;SDS011;8175;49.326;12.690;2023-04-09T14:06:41;11.57;;;10.23;;
16139;SDS011;8175;49.326;12.690;2023-04-09T14:09:07;13.50;;;11.33;;
16139;SDS011;8175;49.326;12.690;2023-04-09T14:11:33;12.33;;;10.90;;
16139;SDS011;8175;49.326;12.690;2023-04-09T14:13:59;12.87;;;11.50;;
16139;SDS011;8175;49.326;12.690;2023-04-09T14:16:25;11.93;;;9.40;;
16139;SDS011;8175;49.326;12.690;2023-04-09T14:18:51;11.53;;;9.03;;
16139;SDS011;8175;49.326;12.690;2023-04-09T14:21:17;12.63;;;10.90;;
16139;SDS011;8175;49.326;12.690;2023-04-09T14:23:43;11.13;;;9.90;;
16139;SDS011;8175;49.326;12.690;2023-04-09T14:26:09;11.37;;;10.17;;
16139;SDS011;8175;49.326;12.690;2023-04-09T14:28:35;10.53;;;9.40;;
16139;SDS011;8175;49.326;12.690;2023-04-09T14:31:01;12.47;;;9.73;;
16139;SDS011;8175;49.326;12.690;2023-04-09T14:33:28;12.03;;;10.83;;
16139;SDS011;8175;49.326;12.690;2023-04-09T14:35:54;12.33;;;11.03;;
16139;SDS011;8175;49.326;12.690;2023-04-09T14:38:20;12.83;;;11.23;;
16139;SDS011;8175;49.326;12.690;2023-04-09T14:40:47;12.63;;;11.33;;
16139;SDS011;8175;49.326;12.690;2023-04-09T14:43:14;12.17;;;10.83;;
16139;SDS011;8175;49.326;12.690;2023-04-09T14:45:39;12.93;;;11.57;;
16139;SDS011;8175;49.326;12.690;2023-04-09T14:48:05;12.57;;;11.20;;
16139;SDS011;8175;49.326;12.690;2023-04-09T14:50:31;11.93;;;10.67;;
16139;SDS011;8175;49.326;12.690;2023-04-09T14:52:58;11.23;;;10.03;;
16139;SDS011;8175;49.326;12.690;2023-04-09T14:55:24;11.10;;;9.70;;
16139;SDS011;8175;49.326;12.690;2023-04-09T14:57:49;11.27;;;9.07;;
16139;SDS011;8175;49.326;12.690;2023-04-09T15:00:15;11.67;;;10.23;;
16139;SDS011;8175;49.326;12.690;2023-04-09T15:02:41;13.30;;;11.00;;
16139;SDS011;8175;49.326;12.690;2023-04-09T15:05:07;11.70;;;10.50;;
16139;SDS011;8175;49.326;12.690;2023-04-09T15:07:33;11.53;;;10.33;;
16139;SDS011;8175;49.326;12.690;2023-04-09T15:09:59;13.53;;;11.63;;
16139;SDS011;8175;49.326;12.690;2023-04-09T15:12:26;12.47;;;11.17;;
16139;SDS011;8175;49.326;12.690;2023-04-09T15:14:53;12.80;;;10.93;;
16139;SDS011;8175;49.326;12.690;2023-04-09T15:17:19;12.37;;;11.10;;
16139;SDS011;8175;49.326;12.690;2023-04-09T15:19:45;12.07;;;10.27;;
16139;SDS011;8175;49.326;12.690;2023-04-09T15:22:11;13.27;;;11.40;;
16139;SDS011;8175;49.326;12.690;2023-04-09T15:24:36;12.03;;;10.67;;
16139;SDS011;8175;49.326;12.690;2023-04-09T15:27:02;12.73;;;11.37;;
16139;SDS011;8175;49.326;12.690;2023-04-09T15:29:27;12.60;;;11.13;;
16139;SDS011;8175;49.326;12.690;2023-04-09T15:31:53;14.73;;;11.43;;
16139;SDS011;8175;49.326;12.690;2023-04-09T15:34:19;14.53;;;12.03;;
16139;SDS011;8175;49.326;12.690;2023-04-09T15:36:45;13.43;;;11.03;;
16139;SDS011;8175;49.326;12.690;2023-04-09T15:39:10;14.10;;;10.87;;
16139;SDS011;8175;49.326;12.690;2023-04-09T15:41:36;13.27;;;10.80;;
16139;SDS011;8175;49.326;12.690;2023-04-09T15:44:02;13.87;;;10.47;;
16139;SDS011;8175;49.326;12.690;2023-04-09T15:46:28;14.63;;;11.33;;
16139;SDS011;8175;49.326;12.690;2023-04-09T15:48:54;12.17;;;9.70;;
16139;SDS011;8175;49.326;12.690;2023-04-09T15:51:20;12.73;;;10.40;;
16139;SDS011;8175;49.326;12.690;2023-04-09T15:53:45;13.80;;;10.43;;
16139;SDS011;8175;49.326;12.690;2023-04-09T15:56:11;13.87;;;9.33;;
16139;SDS011;8175;49.326;12.690;2023-04-09T15:58:40;13.70;;;10.67;;
16139;SDS011;8175;49.326;12.690;2023-04-09T16:01:07;14.97;;;10.63;;
16139;SDS011;8175;49.326;12.690;2023-04-09T16:03:33;14.23;;;10.50;;
16139;SDS011;8175;49.326;12.690;2023-04-09T16:06:04;12.77;;;10.20;;
16139;SDS011;8175;49.326;12.690;2023-04-09T16:08:36;11.97;;;9.67;;
16139;SDS011;8175;49.326;12.690;2023-04-09T16:11:02;13.77;;;10.33;;
16139;SDS011;8175;49.326;12.690;2023-04-09T16:13:29;12.80;;;10.33;;
16139;SDS011;8175;49.326;12.690;2023-04-09T16:15:55;15.80;;;11.37;;
16139;SDS011;8175;49.326;12.690;2023-04-09T16:18:21;14.00;;;10.90;;
16139;SDS011;8175;49.326;12.690;2023-04-09T16:20:51;11.37;;;9.43;;
16139;SDS011;8175;49.326;12.690;2023-04-09T16:23:20;13.90;;;10.27;;
16139;SDS011;8175;49.326;12.690;2023-04-09T16:25:47;13.87;;;11.10;;
16139;SDS011;8175;49.326;12.690;2023-04-09T16:28:13;12.77;;;10.10;;
16139;SDS011;8175;49.326;12.690;2023-04-09T16:30:40;14.10;;;11.57;;
16139;SDS011;8175;49.326;12.690;2023-04-09T16:33:06;14.90;;;11.20;;
16139;SDS011;8175;49.326;12.690;2023-04-09T16:35:35;14.20;;;11.27;;
16139;SDS011;8175;49.326;12.690;2023-04-09T16:38:01;13.23;;;10.07;;
16139;SDS011;8175;49.326;12.690;2023-04-09T16:40:28;12.30;;;10.33;;
16139;SDS011;8175;49.326;12.690;2023-04-09T16:42:53;15.50;;;11.53;;
16139;SDS011;8175;49.326;12.690;2023-04-09T16:45:19;15.23;;;11.37;;
16139;SDS011;8175;49.326;12.690;2023-04-09T16:47:45;14.80;;;10.67;;
16139;SDS011;8175;49.326;12.690;2023-04-09T16:50:11;14.47;;;11.20;;
16139;SDS011;8175;49.326;12.690;2023-04-09T16:52:37;15.47;;;11.63;;
16139;SDS011;8175;49.326;12.690;2023-04-09T16:55:04;14.03;;;11.43;;
16139;SDS011;8175;49.326;12.690;2023-04-09T16:57:33;14.07;;;11.10;;
16139;SDS011;8175;49.326;12.690;2023-04-09T16:59:59;15.57;;;11.73;;
16139;SDS011;8175;49.326;12.690;2023-04-09T17:02:25;14.87;;;10.80;;
16139;SDS011;8175;49.326;12.690;2023-04-09T17:04:54;14.30;;;11.13;;
16139;SDS011;8175;49.326;12.690;2023-04-09T17:07:20;15.43;;;11.67;;
16139;SDS011;8175;49.326;12.690;2023-04-09T17:09:46;14.87;;;10.63;;
16139;SDS011;8175;49.326;12.690;2023-04-09T17:12:12;15.20;;;12.13;;
16139;SDS011;8175;49.326;12.690;2023-04-09T17:14:38;16.10;;;11.43;;
16139;SDS011;8175;49.326;12.690;2023-04-09T17:17:06;13.60;;;10.37;;
16139;SDS011;8175;49.326;12.690;2023-04-09T17:19:31;13.40;;;10.20;;
16139;SDS011;8175;49.326;12.690;2023-04-09T17:21:57;14.47;;;11.20;;
16139;SDS011;8175;49.326;12.690;2023-04-09T17:24:23;14.90;;;10.93;;
16139;SDS011;8175;49.326;12.690;2023-04-09T17:26:49;13.30;;;11.03;;
16139;SDS011;8175;49.326;12.690;2023-04-09T17:29:15;13.13;;;10.00;;
16139;SDS011;8175;49.326;12.690;2023-04-09T17:31:41;14.77;;;10.97;;
16139;SDS011;8175;49.326;12.690;2023-04-09T17:34:07;14.77;;;10.37;;
16139;SDS011;8175;49.326;12.690;2023-04-09T17:36:33;15.00;;;11.40;;
16139;SDS011;8175;49.326;12.690;2023-04-09T17:38:59;16.00;;;11.20;;
16139;SDS011;8175;49.326;12.690;2023-04-09T17:41:24;14.63;;;11.00;;
16139;SDS011;8175;49.326;12.690;2023-04-09T17:43:51;17.07;;;11.70;;
16139;SDS011;8175;49.326;12.690;2023-04-09T17:46:18;18.10;;;11.17;;
16139;SDS011;8175;49.326;12.690;2023-04-09T17:48:43;16.00;;;11.13;;
16139;SDS011;8175;49.326;12.690;2023-04-09T17:51:17;16.83;;;12.43;;
16139;SDS011;8175;49.326;12.690;2023-04-09T17:53:43;14.00;;;10.93;;
16139;SDS011;8175;49.326;12.690;2023-04-09T17:56:14;14.37;;;11.33;;
16139;SDS011;8175;49.326;12.690;2023-04-09T17:58:41;15.20;;;11.67;;
16139;SDS011;8175;49.326;12.690;2023-04-09T18:01:07;14.63;;;10.70;;
16139;SDS011;8175;49.326;12.690;2023-04-09T18:03:33;15.67;;;11.30;;
16139;SDS011;8175;49.326;12.690;2023-04-09T18:05:59;15.30;;;11.70;;
16139;SDS011;8175;49.326;12.690;2023-04-09T18:08:25;14.97;;;11.23;;
16139;SDS011;8175;49.326;12.690;2023-04-09T18:10:51;14.03;;;10.63;;
16139;SDS011;8175;49.326;12.690;2023-04-09T18:13:20;16.20;;;11.53;;
16139;SDS011;8175;49.326;12.690;2023-04-09T18:15:46;15.70;;;11.20;;
16139;SDS011;8175;49.326;12.690;2023-04-09T18:18:12;17.37;;;12.93;;
16139;SDS011;8175;49.326;12.690;2023-04-09T18:20:38;16.53;;;12.73;;
16139;SDS011;8175;49.326;12.690;2023-04-09T18:23:04;16.63;;;11.90;;
16139;SDS011;8175;49.326;12.690;2023-04-09T18:25:30;17.60;;;12.10;;
16139;SDS011;8175;49.326;12.690;2023-04-09T18:27:55;17.43;;;13.07;;
16139;SDS011;8175;49.326;12.690;2023-04-09T18:30:21;16.87;;;12.53;;
16139;SDS011;8175;49.326;12.690;2023-04-09T18:32:47;16.90;;;13.10;;
16139;SDS011;8175;49.326;12.690;2023-04-09T18:35:13;17.70;;;12.97;;
16139;SDS011;8175;49.326;12.690;2023-04-09T18:37:39;18.70;;;13.20;;
16139;SDS011;8175;49.326;12.690;2023-04-09T18:40:05;18.07;;;12.47;;
16139;SDS011;8175;49.326;12.690;2023-04-09T18:42:33;19.37;;;13.63;;
16139;SDS011;8175;49.326;12.690;2023-04-09T18:44:59;18.33;;;13.20;;
16139;SDS011;8175;49.326;12.690;2023-04-09T18:47:24;21.97;;;16.17;;
16139;SDS011;8175;49.326;12.690;2023-04-09T18:49:50;23.93;;;16.97;;
16139;SDS011;8175;49.326;12.690;2023-04-09T18:52:15;19.83;;;15.83;;
16139;SDS011;8175;49.326;12.690;2023-04-09T18:54:41;23.43;;;15.47;;
16139;SDS011;8175;49.326;12.690;2023-04-09T18:57:07;21.07;;;16.70;;
16139;SDS011;8175;49.326;12.690;2023-04-09T18:59:32;21.00;;;14.03;;
16139;SDS011;8175;49.326;12.690;2023-04-09T19:01:59;20.73;;;14.23;;
16139;SDS011;8175;49.326;12.690;2023-04-09T19:04:27;19.70;;;13.83;;
16139;SDS011;8175;49.326;12.690;2023-04-09T19:06:56;20.37;;;13.17;;
16139;SDS011;8175;49.326;12.690;2023-04-09T19:09:22;21.13;;;15.07;;
16139;SDS011;8175;49.326;12.690;2023-04-09T19:11:47;23.33;;;14.97;;
16139;SDS011;8175;49.326;12.690;2023-04-09T19:14:13;21.53;;;15.60;;
16139;SDS011;8175;49.326;12.690;2023-04-09T19:16:39;23.77;;;15.57;;
16139;SDS011;8175;49.326;12.690;2023-04-09T19:19:04;20.63;;;14.37;;
16139;SDS011;8175;49.326;12.690;2023-04-09T19:21:30;19.20;;;14.37;;
16139;SDS011;8175;49.326;12.690;2023-04-09T19:23:56;24.30;;;16.60;;
16139;SDS011;8175;49.326;12.690;2023-04-09T19:26:23;22.63;;;15.50;;
16139;SDS011;8175;49.326;12.690;2023-04-09T19:28:50;23.17;;;14.70;;
16139;SDS011;8175;49.326;12.690;2023-04-09T19:31:16;24.80;;;15.83;;
16139;SDS011;8175;49.326;12.690;2023-04-09T19:33:42;24.07;;;14.40;;
16139;SDS011;8175;49.326;12.690;2023-04-09T19:36:07;24.50;;;15.40;;
16139;SDS011;8175;49.326;12.690;2023-04-09T19:38:33;21.57;;;15.43;;
16139;SDS011;8175;49.326;12.690;2023-04-09T19:40:58;25.47;;;16.97;;
16139;SDS011;8175;49.326;12.690;2023-04-09T19:43:25;23.10;;;15.67;;
16139;SDS011;8175;49.326;12.690;2023-04-09T19:45:50;27.83;;;16.40;;
16139;SDS011;8175;49.326;12.690;2023-04-09T19:48:16;24.90;;;15.57;;
16139;SDS011;8175;49.326;12.690;2023-04-09T19:50:41;23.03;;;15.67;;
16139;SDS011;8175;49.326;12.690;2023-04-09T19:53:09;25.80;;;15.80;;
16139;SDS011;8175;49.326;12.690;2023-04-09T19:55:34;35.93;;;22.20;;
16139;SDS011;8175;49.326;12.690;2023-04-09T19:58:01;27.07;;;17.67;;
16139;SDS011;8175;49.326;12.690;2023-04-09T20:00:27;25.30;;;16.60;;
16139;SDS011;8175;49.326;12.690;2023-04-09T20:02:53;23.77;;;15.63;;
16139;SDS011;8175;49.326;12.690;2023-04-09T20:05:19;21.70;;;15.37;;
16139;SDS011;8175;49.326;12.690;2023-04-09T20:07:48;25.63;;;15.83;;
16139;SDS011;8175;49.326;12.690;2023-04-09T20:10:15;21.53;;;15.43;;
16139;SDS011;8175;49.326;12.690;2023-04-09T20:12:41;23.73;;;14.57;;
16139;SDS011;8175;49.326;12.690;2023-04-09T20:15:10;21.73;;;15.30;;
16139;SDS011;8175;49.326;12.690;2023-04-09T20:17:36;20.10;;;14.50;;
16139;SDS011;8175;49.326;12.690;2023-04-09T20:20:02;22.00;;;14.43;;
16139;SDS011;8175;49.326;12.690;2023-04-09T20:22:28;25.37;;;16.83;;
16139;SDS011;8175;49.326;12.690;2023-04-09T20:24:54;24.30;;;17.20;;
16139;SDS011;8175;49.326;12.690;2023-04-09T20:27:20;23.77;;;17.37;;
16139;SDS011;8175;49.326;12.690;2023-04-09T20:29:46;24.27;;;17.03;;